sensor_id;sensor_type;location;lat;lon;timestamp;P1;durP1;ratioP1;P2;durP2;ratioP2
11048;SDS011;5577;42.706;23.160;2023-04-15T00:00:21;5.67;;;3.73;;
11048;SDS011;5577;42.706;23.160;2023-04-15T00:03:05;4.87;;;3.87;;
11048;SDS011;5577;42.706;23.160;2023-04-15T00:05:49;8.20;;;4.47;;
11048;SDS011;5577;42.706;23.160;2023-04-15T00:08:33;9.20;;;5.40;;
11048;SDS011;5577;42.706;23.160;2023-04-15T00:11:17;6.13;;;4.40;;
11048;SDS011;5577;42.706;23.160;2023-04-15T00:14:02;8.77;;;5.23;;
11048;SDS011;5577;42.706;23.160;2023-04-15T00:16:46;8.53;;;5.53;;
11048;SDS011;5577;42.706;23.160;2023-04-15T00:19:30;10.73;;;5.40;;
11048;SDS011;5577;42.706;23.160;2023-04-15T00:22:14;9.67;;;4.70;;
11048;SDS011;5577;42.706;23.160;2023-04-15T00:24:59;6.80;;;4.07;;
11048;SDS011;5577;42.706;23.160;2023-04-15T00:27:43;8.27;;;4.07;;
11048;SDS011;5577;42.706;23.160;2023-04-15T00:30:27;5.73;;;3.63;;
11048;SDS011;5577;42.706;23.160;2023-04-15T00:33:12;5.57;;;3.50;;
11048;SDS011;5577;42.706;23.160;2023-04-15T00:35:56;9.03;;;4.60;;
11048;SDS011;5577;42.706;23.160;2023-04-15T00:38:40;6.37;;;4.23;;
11048;SDS011;5577;42.706;23.160;2023-04-15T00:41:24;13.87;;;7.57;;
11048;SDS011;5577;42.706;23.160;2023-04-15T00:44:08;11.23;;;5.87;;
11048;SDS011;5577;42.706;23.160;2023-04-15T00:46:53;7.47;;;5.07;;
11048;SDS011;5577;42.706;23.160;2023-04-15T00:49:37;9.17;;;5.33;;
11048;SDS011;5577;42.706;23.160;2023-04-15T00:52:21;9.47;;;4.67;;
11048;SDS011;5577;42.706;23.160;2023-04-15T00:55:05;7.30;;;3.80;;
11048;SDS011;5577;42.706;23.160;2023-04-15T00:57:50;7.30;;;4.20;;
11048;SDS011;5577;42.706;23.160;2023-04-15T01:00:35;5.83;;;3.23;;
11048;SDS011;5577;42.706;23.160;2023-04-15T01:03:19;5.37;;;3.63;;
11048;SDS011;5577;42.706;23.160;2023-04-15T01:06:03;5.30;;;3.33;;
11048;SDS011;5577;42.706;23.160;2023-04-15T01:08:48;6.23;;;3.80;;
11048;SDS011;5577;42.706;23.160;2023-04-15T01:11:32;6.33;;;4.60;;
11048;SDS011;5577;42.706;23.160;2023-04-15T01:14:18;7.07;;;4.30;;
11048;SDS011;5577;42.706;23.160;2023-04-15T01:17:02;5.33;;;3.33;;
11048;SDS011;5577;42.706;23.160;2023-04-15T01:19:46;4.57;;;2.97;;
11048;SDS011;5577;42.706;23.160;2023-04-15T01:22:30;6.53;;;3.47;;
11048;SDS011;5577;42.706;23.160;2023-04-15T01:25:17;4.30;;;3.20;;
11048;SDS011;5577;42.706;23.160;2023-04-15T01:28:02;3.30;;;2.40;;
11048;SDS011;5577;42.706;23.160;2023-04-15T01:30:47;4.40;;;3.07;;
11048;SDS011;5577;42.706;23.160;2023-04-15T01:33:31;5.17;;;3.23;;
11048;SDS011;5577;42.706;23.160;2023-04-15T01:36:15;5.93;;;3.40;;
11048;SDS011;5577;42.706;23.160;2023-04-15T01:38:59;6.57;;;3.27;;
11048;SDS011;5577;42.706;23.160;2023-04-15T01:41:43;5.00;;;3.03;;
11048;SDS011;5577;42.706;23.160;2023-04-15T01:44:27;5.33;;;3.10;;
11048;SDS011;5577;42.706;23.160;2023-04-15T01:47:11;7.00;;;5.00;;
11048;SDS011;5577;42.706;23.160;2023-04-15T01:49:54;5.93;;;4.20;;
11048;SDS011;5577;42.706;23.160;2023-04-15T01:52:38;7.47;;;4.10;;
11048;SDS011;5577;42.706;23.160;2023-04-15T01:55:22;6.87;;;4.13;;
11048;SDS011;5577;42.706;23.160;2023-04-15T01:58:07;9.90;;;4.80;;
11048;SDS011;5577;42.706;23.160;2023-04-15T02:00:51;5.33;;;3.97;;
11048;SDS011;5577;42.706;23.160;2023-04-15T02:03:35;5.63;;;3.30;;
11048;SDS011;5577;42.706;23.160;2023-04-15T02:06:20;4.00;;;2.90;;
11048;SDS011;5577;42.706;23.160;2023-04-15T02:09:04;4.17;;;3.20;;
11048;SDS011;5577;42.706;23.160;2023-04-15T02:11:49;3.40;;;2.80;;
11048;SDS011;5577;42.706;23.160;2023-04-15T02:14:35;7.70;;;4.07;;
11048;SDS011;5577;42.706;23.160;2023-04-15T02:17:20;5.83;;;3.33;;
11048;SDS011;5577;42.706;23.160;2023-04-15T02:20:04;6.20;;;3.27;;
11048;SDS011;5577;42.706;23.160;2023-04-15T02:22:49;5.60;;;3.37;;
11048;SDS011;5577;42.706;23.160;2023-04-15T02:25:33;20.90;;;10.07;;
11048;SDS011;5577;42.706;23.160;2023-04-15T02:28:17;17.90;;;9.30;;
11048;SDS011;5577;42.706;23.160;2023-04-15T02:31:04;14.87;;;7.63;;
11048;SDS011;5577;42.706;23.160;2023-04-15T02:33:49;8.87;;;5.50;;
11048;SDS011;5577;42.706;23.160;2023-04-15T02:36:33;3.60;;;3.30;;
11048;SDS011;5577;42.706;23.160;2023-04-15T02:39:17;5.57;;;3.87;;
11048;SDS011;5577;42.706;23.160;2023-04-15T02:42:01;5.40;;;3.47;;
11048;SDS011;5577;42.706;23.160;2023-04-15T02:44:45;7.00;;;3.80;;
11048;SDS011;5577;42.706;23.160;2023-04-15T02:47:29;6.50;;;3.90;;
11048;SDS011;5577;42.706;23.160;2023-04-15T02:50:13;7.40;;;4.30;;
11048;SDS011;5577;42.706;23.160;2023-04-15T02:52:57;8.93;;;5.30;;
11048;SDS011;5577;42.706;23.160;2023-04-15T02:55:43;7.77;;;5.00;;
11048;SDS011;5577;42.706;23.160;2023-04-15T02:58:28;9.20;;;5.87;;
11048;SDS011;5577;42.706;23.160;2023-04-15T03:01:12;8.97;;;6.40;;
11048;SDS011;5577;42.706;23.160;2023-04-15T03:03:56;9.00;;;6.77;;
11048;SDS011;5577;42.706;23.160;2023-04-15T03:06:40;14.73;;;9.63;;
11048;SDS011;5577;42.706;23.160;2023-04-15T03:09:24;13.97;;;9.63;;
11048;SDS011;5577;42.706;23.160;2023-04-15T03:12:09;14.07;;;8.00;;
11048;SDS011;5577;42.706;23.160;2023-04-15T03:14:53;11.90;;;8.23;;
11048;SDS011;5577;42.706;23.160;2023-04-15T03:17:37;9.93;;;6.80;;
11048;SDS011;5577;42.706;23.160;2023-04-15T03:20:21;11.20;;;6.97;;
11048;SDS011;5577;42.706;23.160;2023-04-15T03:23:05;8.40;;;4.50;;
11048;SDS011;5577;42.706;23.160;2023-04-15T03:25:49;6.47;;;4.53;;
11048;SDS011;5577;42.706;23.160;2023-04-15T03:28:33;7.63;;;5.00;;
11048;SDS011;5577;42.706;23.160;2023-04-15T03:31:17;6.63;;;4.20;;
11048;SDS011;5577;42.706;23.160;2023-04-15T03:34:01;7.47;;;4.43;;
11048;SDS011;5577;42.706;23.160;2023-04-15T03:36:45;7.77;;;5.00;;
11048;SDS011;5577;42.706;23.160;2023-04-15T03:39:29;7.50;;;4.70;;
11048;SDS011;5577;42.706;23.160;2023-04-15T03:42:14;12.57;;;8.37;;
11048;SDS011;5577;42.706;23.160;2023-04-15T03:44:58;40.47;;;22.47;;
11048;SDS011;5577;42.706;23.160;2023-04-15T03:47:42;15.07;;;9.63;;
11048;SDS011;5577;42.706;23.160;2023-04-15T03:50:26;16.47;;;9.67;;
11048;SDS011;5577;42.706;23.160;2023-04-15T03:53:10;7.80;;;5.20;;
11048;SDS011;5577;42.706;23.160;2023-04-15T03:55:54;8.50;;;4.93;;
11048;SDS011;5577;42.706;23.160;2023-04-15T03:58:38;8.23;;;5.13;;
11048;SDS011;5577;42.706;23.160;2023-04-15T04:01:23;6.03;;;4.97;;
11048;SDS011;5577;42.706;23.160;2023-04-15T04:04:07;8.50;;;5.50;;
11048;SDS011;5577;42.706;23.160;2023-04-15T04:06:51;7.73;;;5.53;;
11048;SDS011;5577;42.706;23.160;2023-04-15T04:09:35;7.87;;;5.53;;
11048;SDS011;5577;42.706;23.160;2023-04-15T04:12:18;7.67;;;5.23;;
11048;SDS011;5577;42.706;23.160;2023-04-15T04:15:03;8.80;;;5.57;;
11048;SDS011;5577;42.706;23.160;2023-04-15T04:17:48;10.37;;;6.20;;
11048;SDS011;5577;42.706;23.160;2023-04-15T04:20:32;7.43;;;6.73;;
11048;SDS011;5577;42.706;23.160;2023-04-15T04:23:17;9.43;;;7.30;;
11048;SDS011;5577;42.706;23.160;2023-04-15T04:26:00;9.03;;;7.17;;
11048;SDS011;5577;42.706;23.160;2023-04-15T04:28:45;10.43;;;7.73;;
11048;SDS011;5577;42.706;23.160;2023-04-15T04:31:29;8.97;;;6.47;;
11048;SDS011;5577;42.706;23.160;2023-04-15T04:34:14;9.47;;;6.63;;
11048;SDS011;5577;42.706;23.160;2023-04-15T04:36:58;10.23;;;7.10;;
11048;SDS011;5577;42.706;23.160;2023-04-15T04:39:42;7.50;;;6.30;;
11048;SDS011;5577;42.706;23.160;2023-04-15T04:42:26;6.30;;;4.90;;
11048;SDS011;5577;42.706;23.160;2023-04-15T04:45:10;6.50;;;4.63;;
11048;SDS011;5577;42.706;23.160;2023-04-15T04:47:54;8.50;;;4.63;;
11048;SDS011;5577;42.706;23.160;2023-04-15T04:50:38;6.70;;;4.57;;
11048;SDS011;5577;42.706;23.160;2023-04-15T04:53:22;5.30;;;3.90;;
11048;SDS011;5577;42.706;23.160;2023-04-15T04:56:06;6.67;;;3.83;;
11048;SDS011;5577;42.706;23.160;2023-04-15T04:58:50;6.17;;;3.63;;
11048;SDS011;5577;42.706;23.160;2023-04-15T05:01:34;6.23;;;3.67;;
11048;SDS011;5577;42.706;23.160;2023-04-15T05:04:18;6.17;;;5.20;;
11048;SDS011;5577;42.706;23.160;2023-04-15T05:07:02;6.97;;;4.93;;
11048;SDS011;5577;42.706;23.160;2023-04-15T05:09:46;4.53;;;3.87;;
11048;SDS011;5577;42.706;23.160;2023-04-15T05:12:30;5.23;;;3.63;;
11048;SDS011;5577;42.706;23.160;2023-04-15T05:15:15;4.63;;;3.43;;
11048;SDS011;5577;42.706;23.160;2023-04-15T05:17:59;3.63;;;3.23;;
11048;SDS011;5577;42.706;23.160;2023-04-15T05:20:43;7.07;;;3.70;;
11048;SDS011;5577;42.706;23.160;2023-04-15T05:23:27;7.20;;;3.67;;
11048;SDS011;5577;42.706;23.160;2023-04-15T05:26:11;6.67;;;3.80;;
11048;SDS011;5577;42.706;23.160;2023-04-15T05:28:55;6.23;;;4.20;;
11048;SDS011;5577;42.706;23.160;2023-04-15T05:31:39;4.03;;;3.17;;
11048;SDS011;5577;42.706;23.160;2023-04-15T05:34:23;7.23;;;3.80;;
11048;SDS011;5577;42.706;23.160;2023-04-15T05:37:07;7.80;;;3.73;;
11048;SDS011;5577;42.706;23.160;2023-04-15T05:39:51;7.50;;;4.83;;
11048;SDS011;5577;42.706;23.160;2023-04-15T05:42:35;6.40;;;4.00;;
11048;SDS011;5577;42.706;23.160;2023-04-15T05:45:19;8.53;;;4.27;;
11048;SDS011;5577;42.706;23.160;2023-04-15T05:48:03;6.33;;;4.43;;
11048;SDS011;5577;42.706;23.160;2023-04-15T05:50:47;5.77;;;4.20;;
11048;SDS011;5577;42.706;23.160;2023-04-15T05:53:31;6.57;;;4.10;;
11048;SDS011;5577;42.706;23.160;2023-04-15T05:56:15;6.10;;;4.03;;
11048;SDS011;5577;42.706;23.160;2023-04-15T05:58:59;7.30;;;4.10;;
11048;SDS011;5577;42.706;23.160;2023-04-15T06:01:44;6.93;;;4.00;;
11048;SDS011;5577;42.706;23.160;2023-04-15T06:04:29;7.20;;;3.87;;
11048;SDS011;5577;42.706;23.160;2023-04-15T06:07:15;5.07;;;3.90;;
11048;SDS011;5577;42.706;23.160;2023-04-15T06:09:59;7.83;;;3.33;;
11048;SDS011;5577;42.706;23.160;2023-04-15T06:12:43;5.90;;;3.30;;
11048;SDS011;5577;42.706;23.160;2023-04-15T06:15:28;3.40;;;2.77;;
11048;SDS011;5577;42.706;23.160;2023-04-15T06:18:12;3.97;;;2.93;;
11048;SDS011;5577;42.706;23.160;2023-04-15T06:20:56;6.17;;;3.10;;
11048;SDS011;5577;42.706;23.160;2023-04-15T06:23:40;3.40;;;2.03;;
11048;SDS011;5577;42.706;23.160;2023-04-15T06:26:24;5.13;;;2.40;;
11048;SDS011;5577;42.706;23.160;2023-04-15T06:29:09;3.67;;;1.80;;
11048;SDS011;5577;42.706;23.160;2023-04-15T06:31:53;3.50;;;2.20;;
11048;SDS011;5577;42.706;23.160;2023-04-15T06:34:39;5.20;;;2.13;;
11048;SDS011;5577;42.706;23.160;2023-04-15T06:37:22;5.00;;;2.23;;
11048;SDS011;5577;42.706;23.160;2023-04-15T06:40:07;4.07;;;1.87;;
11048;SDS011;5577;42.706;23.160;2023-04-15T06:42:52;3.53;;;1.90;;
11048;SDS011;5577;42.706;23.160;2023-04-15T06:45:36;8.00;;;2.57;;
11048;SDS011;5577;42.706;23.160;2023-04-15T06:48:21;5.47;;;2.13;;
11048;SDS011;5577;42.706;23.160;2023-04-15T06:51:05;6.10;;;2.50;;
11048;SDS011;5577;42.706;23.160;2023-04-15T06:53:49;7.57;;;2.40;;
11048;SDS011;5577;42.706;23.160;2023-04-15T06:56:33;2.10;;;1.30;;
11048;SDS011;5577;42.706;23.160;2023-04-15T06:59:17;8.30;;;2.20;;
11048;SDS011;5577;42.706;23.160;2023-04-15T07:02:01;4.13;;;1.13;;
11048;SDS011;5577;42.706;23.160;2023-04-15T07:04:45;3.13;;;1.70;;
11048;SDS011;5577;42.706;23.160;2023-04-15T07:07:30;3.50;;;1.27;;
11048;SDS011;5577;42.706;23.160;2023-04-15T07:10:14;1.97;;;0.93;;
11048;SDS011;5577;42.706;23.160;2023-04-15T07:12:58;1.97;;;0.93;;
11048;SDS011;5577;42.706;23.160;2023-04-15T07:15:42;1.57;;;1.20;;
11048;SDS011;5577;42.706;23.160;2023-04-15T07:18:26;1.40;;;0.67;;
11048;SDS011;5577;42.706;23.160;2023-04-15T07:21:10;2.17;;;1.03;;
11048;SDS011;5577;42.706;23.160;2023-04-15T07:23:54;2.40;;;1.07;;
11048;SDS011;5577;42.706;23.160;2023-04-15T07:26:38;3.43;;;1.10;;
11048;SDS011;5577;42.706;23.160;2023-04-15T07:29:22;2.57;;;1.13;;
11048;SDS011;5577;42.706;23.160;2023-04-15T07:32:06;1.10;;;1.00;;
11048;SDS011;5577;42.706;23.160;2023-04-15T07:34:50;1.47;;;0.90;;
11048;SDS011;5577;42.706;23.160;2023-04-15T07:37:34;2.67;;;1.17;;
11048;SDS011;5577;42.706;23.160;2023-04-15T07:40:18;3.40;;;1.10;;
11048;SDS011;5577;42.706;23.160;2023-04-15T07:43:02;3.43;;;0.90;;
11048;SDS011;5577;42.706;23.160;2023-04-15T07:45:47;3.97;;;1.00;;
11048;SDS011;5577;42.706;23.160;2023-04-15T07:48:31;2.80;;;1.07;;
11048;SDS011;5577;42.706;23.160;2023-04-15T07:51:15;1.37;;;0.90;;
11048;SDS011;5577;42.706;23.160;2023-04-15T07:54:00;4.73;;;1.37;;
11048;SDS011;5577;42.706;23.160;2023-04-15T07:56:44;1.70;;;0.83;;
11048;SDS011;5577;42.706;23.160;2023-04-15T07:59:28;1.60;;;0.93;;
11048;SDS011;5577;42.706;23.160;2023-04-15T08:02:13;2.10;;;0.97;;
11048;SDS011;5577;42.706;23.160;2023-04-15T08:04:58;1.43;;;0.70;;
11048;SDS011;5577;42.706;23.160;2023-04-15T08:07:42;2.50;;;0.90;;
11048;SDS011;5577;42.706;23.160;2023-04-15T08:10:27;1.57;;;1.00;;
11048;SDS011;5577;42.706;23.160;2023-04-15T08:13:12;2.60;;;1.03;;
11048;SDS011;5577;42.706;23.160;2023-04-15T08:19:03;2.97;;;1.20;;
11048;SDS011;5577;42.706;23.160;2023-04-15T08:21:48;3.27;;;1.17;;
11048;SDS011;5577;42.706;23.160;2023-04-15T08:24:32;2.13;;;1.40;;
11048;SDS011;5577;42.706;23.160;2023-04-15T08:27:17;4.40;;;2.07;;
11048;SDS011;5577;42.706;23.160;2023-04-15T08:30:01;3.17;;;1.30;;
11048;SDS011;5577;42.706;23.160;2023-04-15T08:32:45;1.73;;;1.37;;
11048;SDS011;5577;42.706;23.160;2023-04-15T08:35:29;4.43;;;1.30;;
11048;SDS011;5577;42.706;23.160;2023-04-15T08:38:14;6.00;;;3.50;;
11048;SDS011;5577;42.706;23.160;2023-04-15T08:40:59;2.53;;;1.17;;
11048;SDS011;5577;42.706;23.160;2023-04-15T08:43:55;2.87;;;1.40;;
11048;SDS011;5577;42.706;23.160;2023-04-15T08:46:41;2.73;;;1.10;;
11048;SDS011;5577;42.706;23.160;2023-04-15T08:49:25;2.77;;;1.13;;
11048;SDS011;5577;42.706;23.160;2023-04-15T08:52:11;1.43;;;1.00;;
11048;SDS011;5577;42.706;23.160;2023-04-15T08:54:55;2.17;;;1.20;;
11048;SDS011;5577;42.706;23.160;2023-04-15T08:57:41;3.50;;;1.00;;
11048;SDS011;5577;42.706;23.160;2023-04-15T09:00:26;2.63;;;1.03;;
11048;SDS011;5577;42.706;23.160;2023-04-15T09:03:10;2.30;;;1.03;;
11048;SDS011;5577;42.706;23.160;2023-04-15T09:05:54;2.60;;;1.00;;
11048;SDS011;5577;42.706;23.160;2023-04-15T09:08:40;1.87;;;0.90;;
11048;SDS011;5577;42.706;23.160;2023-04-15T09:11:25;10.87;;;1.77;;
11048;SDS011;5577;42.706;23.160;2023-04-15T09:14:09;3.17;;;1.10;;
11048;SDS011;5577;42.706;23.160;2023-04-15T09:19:45;4.67;;;1.00;;
11048;SDS011;5577;42.706;23.160;2023-04-15T09:22:32;6.17;;;1.77;;
11048;SDS011;5577;42.706;23.160;2023-04-15T09:28:07;5.10;;;0.87;;
11048;SDS011;5577;42.706;23.160;2023-04-15T09:30:55;1.53;;;1.00;;
11048;SDS011;5577;42.706;23.160;2023-04-15T09:34:00;4.10;;;1.30;;
11048;SDS011;5577;42.706;23.160;2023-04-15T09:39:48;1.93;;;0.87;;
11048;SDS011;5577;42.706;23.160;2023-04-15T09:42:34;1.53;;;0.70;;
11048;SDS011;5577;42.706;23.160;2023-04-15T09:45:20;1.23;;;0.60;;
11048;SDS011;5577;42.706;23.160;2023-04-15T09:48:20;1.20;;;0.60;;
11048;SDS011;5577;42.706;23.160;2023-04-15T09:51:06;0.93;;;0.70;;
11048;SDS011;5577;42.706;23.160;2023-04-15T09:53:53;1.90;;;0.57;;
11048;SDS011;5577;42.706;23.160;2023-04-15T09:56:39;1.60;;;0.70;;
11048;SDS011;5577;42.706;23.160;2023-04-15T09:59:26;2.10;;;0.70;;
11048;SDS011;5577;42.706;23.160;2023-04-15T10:02:10;2.27;;;0.93;;
11048;SDS011;5577;42.706;23.160;2023-04-15T10:04:56;2.70;;;1.40;;
11048;SDS011;5577;42.706;23.160;2023-04-15T10:07:40;5.53;;;1.57;;
11048;SDS011;5577;42.706;23.160;2023-04-15T10:10:25;1.67;;;0.90;;
11048;SDS011;5577;42.706;23.160;2023-04-15T10:13:10;2.23;;;0.70;;
11048;SDS011;5577;42.706;23.160;2023-04-15T10:16:06;1.17;;;0.73;;
11048;SDS011;5577;42.706;23.160;2023-04-15T10:18:55;0.93;;;0.80;;
11048;SDS011;5577;42.706;23.160;2023-04-15T10:21:39;1.37;;;0.97;;
11048;SDS011;5577;42.706;23.160;2023-04-15T10:24:24;1.37;;;0.67;;
11048;SDS011;5577;42.706;23.160;2023-04-15T10:27:08;2.60;;;0.60;;
11048;SDS011;5577;42.706;23.160;2023-04-15T10:29:53;0.73;;;0.53;;
11048;SDS011;5577;42.706;23.160;2023-04-15T10:32:38;0.87;;;0.73;;
11048;SDS011;5577;42.706;23.160;2023-04-15T10:35:23;2.03;;;0.80;;
11048;SDS011;5577;42.706;23.160;2023-04-15T10:44:02;1.67;;;0.80;;
11048;SDS011;5577;42.706;23.160;2023-04-15T10:46:47;1.43;;;1.00;;
11048;SDS011;5577;42.706;23.160;2023-04-15T10:49:34;1.90;;;1.20;;
11048;SDS011;5577;42.706;23.160;2023-04-15T10:52:28;1.53;;;0.93;;
11048;SDS011;5577;42.706;23.160;2023-04-15T10:55:13;2.13;;;1.10;;
11048;SDS011;5577;42.706;23.160;2023-04-15T10:58:01;2.20;;;1.00;;
11048;SDS011;5577;42.706;23.160;2023-04-15T11:00:49;2.40;;;1.10;;
11048;SDS011;5577;42.706;23.160;2023-04-15T11:03:36;3.07;;;1.00;;
11048;SDS011;5577;42.706;23.160;2023-04-15T11:06:41;1.53;;;1.00;;
11048;SDS011;5577;42.706;23.160;2023-04-15T11:09:31;1.80;;;1.07;;
11048;SDS011;5577;42.706;23.160;2023-04-15T11:12:16;3.43;;;1.40;;
11048;SDS011;5577;42.706;23.160;2023-04-15T11:21:03;2.20;;;0.87;;
11048;SDS011;5577;42.706;23.160;2023-04-15T11:23:48;2.47;;;1.10;;
11048;SDS011;5577;42.706;23.160;2023-04-15T11:26:33;2.27;;;1.20;;
11048;SDS011;5577;42.706;23.160;2023-04-15T11:29:17;1.57;;;0.83;;
11048;SDS011;5577;42.706;23.160;2023-04-15T11:32:05;1.57;;;1.00;;
11048;SDS011;5577;42.706;23.160;2023-04-15T11:34:51;2.10;;;1.00;;
11048;SDS011;5577;42.706;23.160;2023-04-15T11:37:35;3.00;;;1.03;;
11048;SDS011;5577;42.706;23.160;2023-04-15T11:40:23;1.60;;;1.03;;
11048;SDS011;5577;42.706;23.160;2023-04-15T11:43:18;1.77;;;1.20;;
11048;SDS011;5577;42.706;23.160;2023-04-15T11:46:03;3.07;;;0.93;;
11048;SDS011;5577;42.706;23.160;2023-04-15T11:48:48;2.23;;;0.90;;
11048;SDS011;5577;42.706;23.160;2023-04-15T11:51:32;1.73;;;1.03;;
11048;SDS011;5577;42.706;23.160;2023-04-15T11:54:18;1.10;;;0.90;;
11048;SDS011;5577;42.706;23.160;2023-04-15T11:57:02;1.70;;;0.93;;
11048;SDS011;5577;42.706;23.160;2023-04-15T11:59:45;1.87;;;1.00;;
11048;SDS011;5577;42.706;23.160;2023-04-15T12:02:30;1.93;;;0.90;;
11048;SDS011;5577;42.706;23.160;2023-04-15T12:05:14;1.10;;;0.90;;
11048;SDS011;5577;42.706;23.160;2023-04-15T12:07:58;1.43;;;1.03;;
11048;SDS011;5577;42.706;23.160;2023-04-15T12:10:43;1.00;;;0.90;;
11048;SDS011;5577;42.706;23.160;2023-04-15T12:13:27;1.73;;;0.90;;
11048;SDS011;5577;42.706;23.160;2023-04-15T12:16:11;2.83;;;1.00;;
11048;SDS011;5577;42.706;23.160;2023-04-15T12:18:57;1.57;;;0.80;;
11048;SDS011;5577;42.706;23.160;2023-04-15T12:21:46;1.33;;;0.80;;
11048;SDS011;5577;42.706;23.160;2023-04-15T12:24:32;1.27;;;0.80;;
11048;SDS011;5577;42.706;23.160;2023-04-15T12:27:17;3.73;;;1.00;;
11048;SDS011;5577;42.706;23.160;2023-04-15T12:30:04;1.73;;;0.80;;
11048;SDS011;5577;42.706;23.160;2023-04-15T12:32:50;1.07;;;0.90;;
11048;SDS011;5577;42.706;23.160;2023-04-15T12:35:34;1.73;;;0.90;;
11048;SDS011;5577;42.706;23.160;2023-04-15T12:38:18;2.70;;;0.97;;
11048;SDS011;5577;42.706;23.160;2023-04-15T12:41:03;3.40;;;1.07;;
11048;SDS011;5577;42.706;23.160;2023-04-15T12:43:47;1.33;;;0.70;;
11048;SDS011;5577;42.706;23.160;2023-04-15T12:46:31;0.73;;;0.60;;
11048;SDS011;5577;42.706;23.160;2023-04-15T12:49:15;1.80;;;0.90;;
11048;SDS011;5577;42.706;23.160;2023-04-15T12:52:02;1.70;;;0.90;;
11048;SDS011;5577;42.706;23.160;2023-04-15T12:54:46;2.33;;;0.80;;
11048;SDS011;5577;42.706;23.160;2023-04-15T12:57:30;1.50;;;0.77;;
11048;SDS011;5577;42.706;23.160;2023-04-15T13:00:15;2.90;;;1.00;;
11048;SDS011;5577;42.706;23.160;2023-04-15T13:03:00;1.40;;;1.10;;
11048;SDS011;5577;42.706;23.160;2023-04-15T13:05:44;1.73;;;1.00;;
11048;SDS011;5577;42.706;23.160;2023-04-15T13:08:27;1.67;;;0.97;;
11048;SDS011;5577;42.706;23.160;2023-04-15T13:11:11;2.63;;;0.90;;
11048;SDS011;5577;42.706;23.160;2023-04-15T13:13:56;2.67;;;1.00;;
11048;SDS011;5577;42.706;23.160;2023-04-15T13:16:40;2.83;;;1.23;;
11048;SDS011;5577;42.706;23.160;2023-04-15T13:19:24;2.87;;;1.20;;
11048;SDS011;5577;42.706;23.160;2023-04-15T13:22:09;4.27;;;1.00;;
11048;SDS011;5577;42.706;23.160;2023-04-15T13:24:54;2.20;;;1.20;;
11048;SDS011;5577;42.706;23.160;2023-04-15T13:27:39;1.87;;;0.80;;
11048;SDS011;5577;42.706;23.160;2023-04-15T13:30:23;1.47;;;0.93;;
11048;SDS011;5577;42.706;23.160;2023-04-15T13:33:07;0.80;;;0.70;;
11048;SDS011;5577;42.706;23.160;2023-04-15T13:35:51;1.03;;;0.80;;
11048;SDS011;5577;42.706;23.160;2023-04-15T13:38:35;1.83;;;0.77;;
11048;SDS011;5577;42.706;23.160;2023-04-15T13:41:18;1.20;;;0.80;;
11048;SDS011;5577;42.706;23.160;2023-04-15T13:44:03;1.50;;;1.00;;
11048;SDS011;5577;42.706;23.160;2023-04-15T13:46:48;2.80;;;1.30;;
11048;SDS011;5577;42.706;23.160;2023-04-15T13:49:32;2.60;;;1.10;;
11048;SDS011;5577;42.706;23.160;2023-04-15T13:52:17;1.13;;;0.80;;
11048;SDS011;5577;42.706;23.160;2023-04-15T13:55:01;1.47;;;0.80;;
11048;SDS011;5577;42.706;23.160;2023-04-15T13:57:46;2.50;;;0.90;;
11048;SDS011;5577;42.706;23.160;2023-04-15T14:00:30;1.87;;;0.90;;
11048;SDS011;5577;42.706;23.160;2023-04-15T14:03:14;1.67;;;0.90;;
11048;SDS011;5577;42.706;23.160;2023-04-15T14:05:58;2.40;;;0.70;;
11048;SDS011;5577;42.706;23.160;2023-04-15T14:08:42;1.47;;;0.70;;
11048;SDS011;5577;42.706;23.160;2023-04-15T14:11:25;1.60;;;0.60;;
11048;SDS011;5577;42.706;23.160;2023-04-15T14:14:09;4.00;;;1.10;;
11048;SDS011;5577;42.706;23.160;2023-04-15T14:16:53;1.87;;;0.70;;
11048;SDS011;5577;42.706;23.160;2023-04-15T14:19:38;2.90;;;0.77;;
11048;SDS011;5577;42.706;23.160;2023-04-15T14:22:22;1.77;;;0.80;;
11048;SDS011;5577;42.706;23.160;2023-04-15T14:25:06;1.43;;;0.93;;
11048;SDS011;5577;42.706;23.160;2023-04-15T14:27:51;2.10;;;1.10;;
11048;SDS011;5577;42.706;23.160;2023-04-15T14:30:35;0.80;;;0.60;;
11048;SDS011;5577;42.706;23.160;2023-04-15T14:33:18;1.10;;;0.60;;
11048;SDS011;5577;42.706;23.160;2023-04-15T14:36:03;2.70;;;0.83;;
11048;SDS011;5577;42.706;23.160;2023-04-15T14:38:47;1.13;;;0.73;;
11048;SDS011;5577;42.706;23.160;2023-04-15T14:41:31;1.50;;;0.70;;
11048;SDS011;5577;42.706;23.160;2023-04-15T14:44:15;0.97;;;0.80;;
11048;SDS011;5577;42.706;23.160;2023-04-15T14:46:59;0.87;;;0.53;;
11048;SDS011;5577;42.706;23.160;2023-04-15T14:49:43;2.80;;;0.80;;
11048;SDS011;5577;42.706;23.160;2023-04-15T14:52:27;1.10;;;1.00;;
11048;SDS011;5577;42.706;23.160;2023-04-15T14:55:11;2.40;;;0.80;;
11048;SDS011;5577;42.706;23.160;2023-04-15T14:57:55;0.80;;;0.73;;
11048;SDS011;5577;42.706;23.160;2023-04-15T15:00:39;1.47;;;0.70;;
11048;SDS011;5577;42.706;23.160;2023-04-15T15:03:27;1.47;;;0.77;;
11048;SDS011;5577;42.706;23.160;2023-04-15T15:06:11;3.20;;;0.90;;
11048;SDS011;5577;42.706;23.160;2023-04-15T15:08:56;1.73;;;0.70;;
11048;SDS011;5577;42.706;23.160;2023-04-15T15:11:39;1.10;;;0.80;;
11048;SDS011;5577;42.706;23.160;2023-04-15T15:14:23;0.90;;;0.80;;
11048;SDS011;5577;42.706;23.160;2023-04-15T15:17:08;0.95;;;0.80;;
11048;SDS011;5577;42.706;23.160;2023-04-15T15:19:52;1.20;;;0.70;;
11048;SDS011;5577;42.706;23.160;2023-04-15T15:22:36;1.77;;;0.93;;
11048;SDS011;5577;42.706;23.160;2023-04-15T15:25:20;1.88;;;0.95;;
11048;SDS011;5577;42.706;23.160;2023-04-15T15:28:05;1.73;;;1.07;;
11048;SDS011;5577;42.706;23.160;2023-04-15T15:30:49;1.30;;;0.80;;
11048;SDS011;5577;42.706;23.160;2023-04-15T15:33:33;1.60;;;0.77;;
11048;SDS011;5577;42.706;23.160;2023-04-15T15:36:17;1.60;;;0.70;;
11048;SDS011;5577;42.706;23.160;2023-04-15T15:39:01;1.97;;;0.80;;
11048;SDS011;5577;42.706;23.160;2023-04-15T15:41:46;1.13;;;1.00;;
11048;SDS011;5577;42.706;23.160;2023-04-15T15:44:30;1.60;;;1.10;;
11048;SDS011;5577;42.706;23.160;2023-04-15T15:47:14;4.40;;;1.10;;
11048;SDS011;5577;42.706;23.160;2023-04-15T15:49:59;3.07;;;1.20;;
11048;SDS011;5577;42.706;23.160;2023-04-15T15:52:43;1.70;;;1.10;;
11048;SDS011;5577;42.706;23.160;2023-04-15T15:55:27;3.30;;;1.30;;
11048;SDS011;5577;42.706;23.160;2023-04-15T15:58:11;1.70;;;0.90;;
11048;SDS011;5577;42.706;23.160;2023-04-15T16:00:55;1.27;;;0.90;;
11048;SDS011;5577;42.706;23.160;2023-04-15T16:03:40;0.80;;;0.80;;
11048;SDS011;5577;42.706;23.160;2023-04-15T16:06:24;1.10;;;0.90;;
11048;SDS011;5577;42.706;23.160;2023-04-15T16:09:09;1.97;;;0.90;;
11048;SDS011;5577;42.706;23.160;2023-04-15T16:11:53;3.40;;;1.30;;
11048;SDS011;5577;42.706;23.160;2023-04-15T16:14:37;1.70;;;1.10;;
11048;SDS011;5577;42.706;23.160;2023-04-15T16:17:22;3.10;;;1.40;;
11048;SDS011;5577;42.706;23.160;2023-04-15T16:20:06;1.73;;;0.93;;
11048;SDS011;5577;42.706;23.160;2023-04-15T16:22:51;2.03;;;1.10;;
11048;SDS011;5577;42.706;23.160;2023-04-15T16:25:35;2.23;;;1.07;;
11048;SDS011;5577;42.706;23.160;2023-04-15T16:28:18;2.90;;;1.17;;
11048;SDS011;5577;42.706;23.160;2023-04-15T16:31:02;1.73;;;1.00;;
11048;SDS011;5577;42.706;23.160;2023-04-15T16:33:46;2.20;;;1.20;;
11048;SDS011;5577;42.706;23.160;2023-04-15T16:36:32;1.30;;;1.17;;
11048;SDS011;5577;42.706;23.160;2023-04-15T16:39:17;1.10;;;1.00;;
11048;SDS011;5577;42.706;23.160;2023-04-15T16:42:02;4.07;;;1.20;;
11048;SDS011;5577;42.706;23.160;2023-04-15T16:44:46;2.77;;;1.20;;
11048;SDS011;5577;42.706;23.160;2023-04-15T16:47:30;1.87;;;1.00;;
11048;SDS011;5577;42.706;23.160;2023-04-15T16:50:14;3.73;;;0.97;;
11048;SDS011;5577;42.706;23.160;2023-04-15T16:52:58;1.90;;;1.10;;
11048;SDS011;5577;42.706;23.160;2023-04-15T16:55:42;2.13;;;1.60;;